Time;durP1;ratioP1;P1;durP2;ratioP2;P2;SDS_P1;SDS_P2;PMS_P1;PMS_P2;Temp;Humidity;BMP_temperature;BMP_pressure;BME280_temperature;BME280_humidity;BME280_pressure;Samples;Min_cycle;Max_cycle;Signal;HPM_P1;HPM_P2
2023/12/09 00:00:30;;;;;;;14.57;10.05;;;;;;;;;;5057782;28;20059;-81
2023/12/09 00:02:57;;;;;;;16.02;10.50;;;;;;;;;;5061108;28;20060;-81
2023/12/09 00:05:23;;;;;;;14.38;10.10;;;;;;;;;;5047955;28;20132;-81
2023/12/09 00:07:50;;;;;;;15.70;10.85;;;;;;;;;;5064406;28;20510;-81
2023/12/09 00:10:17;;;;;;;18.25;10.55;;;;;;;;;;5045957;28;20106;-80
2023/12/09 00:12:44;;;;;;;14.35;10.23;;;;;;;;;;5076357;28;20107;-80
2023/12/09 00:15:11;;;;;;;14.80;10.52;;;;;;;;;;5098894;28;20052;-80
2023/12/09 00:17:38;;;;;;;15.63;10.38;;;;;;;;;;5076159;28;20049;-80
2023/12/09 00:20:05;;;;;;;13.57;10.20;;;;;;;;;;5063026;28;20436;-80
2023/12/09 00:22:32;;;;;;;14.85;10.25;;;;;;;;;;5060611;28;20056;-80
2023/12/09 00:24:59;;;;;;;14.63;10.63;;;;;;;;;;5061689;28;20129;-80
2023/12/09 00:27:26;;;;;;;18.13;10.52;;;;;;;;;;5097732;28;20049;-80
2023/12/09 00:29:53;;;;;;;14.82;10.23;;;;;;;;;;5068944;28;20561;-80
2023/12/09 00:32:20;;;;;;;17.63;10.25;;;;;;;;;;5036152;28;20521;-81
2023/12/09 00:34:47;;;;;;;15.05;10.40;;;;;;;;;;5059391;28;20057;-81
2023/12/09 00:37:14;;;;;;;14.27;10.32;;;;;;;;;;5075494;28;20048;-81
2023/12/09 00:39:41;;;;;;;16.50;11.15;;;;;;;;;;5108507;28;20082;-81
2023/12/09 00:42:07;;;;;;;15.73;10.98;;;;;;;;;;5087541;28;20061;-81
2023/12/09 00:44:34;;;;;;;15.75;10.73;;;;;;;;;;5095415;28;20498;-81
2023/12/09 00:47:01;;;;;;;17.65;10.98;;;;;;;;;;5061486;28;20107;-81
2023/12/09 00:49:28;;;;;;;17.30;10.98;;;;;;;;;;5059004;28;20080;-81
2023/12/09 00:51:54;;;;;;;16.40;10.18;;;;;;;;;;5060927;28;20082;-81
2023/12/09 00:54:21;;;;;;;17.75;10.82;;;;;;;;;;5079463;28;20079;-81
2023/12/09 00:56:48;;;;;;;15.07;10.60;;;;;;;;;;5079597;28;20051;-81
2023/12/09 00:59:15;;;;;;;16.33;10.68;;;;;;;;;;5096227;28;20057;-81
2023/12/09 01:01:42;;;;;;;16.58;11.30;;;;;;;;;;5095892;28;20049;-81
2023/12/09 01:04:08;;;;;;;14.88;10.68;;;;;;;;;;5072011;28;20091;-81
2023/12/09 01:06:35;;;;;;;15.95;10.55;;;;;;;;;;5061596;28;20056;-80
2023/12/09 01:09:02;;;;;;;15.20;10.85;;;;;;;;;;5077805;28;20056;-81
2023/12/09 01:11:29;;;;;;;16.55;10.80;;;;;;;;;;5058673;28;20140;-81
2023/12/09 01:13:56;;;;;;;19.58;11.15;;;;;;;;;;5045224;28;20052;-80
2023/12/09 01:16:22;;;;;;;14.48;10.30;;;;;;;;;;5094768;28;20048;-81
2023/12/09 01:18:49;;;;;;;15.77;10.07;;;;;;;;;;5076532;28;20083;-81
2023/12/09 01:21:16;;;;;;;13.88;11.13;;;;;;;;;;5058198;28;20396;-80
2023/12/09 01:23:43;;;;;;;13.85;10.23;;;;;;;;;;5038472;28;20053;-81
2023/12/09 01:26:10;;;;;;;13.18;10.02;;;;;;;;;;5091387;28;20059;-80
2023/12/09 01:28:37;;;;;;;14.30;9.70;;;;;;;;;;5074260;28;20106;-81
2023/12/09 01:31:04;;;;;;;15.32;10.38;;;;;;;;;;5086825;28;20045;-81
2023/12/09 01:33:30;;;;;;;15.43;9.80;;;;;;;;;;5099181;28;20032;-81
2023/12/09 01:35:57;;;;;;;17.25;10.23;;;;;;;;;;5080912;28;20041;-81
2023/12/09 01:38:24;;;;;;;14.95;9.40;;;;;;;;;;5078556;28;20076;-81
2023/12/09 01:40:54;;;;;;;14.30;9.98;;;;;;;;;;5063214;28;20033;-81
2023/12/09 01:43:22;;;;;;;14.65;9.77;;;;;;;;;;5095087;28;20048;-81
2023/12/09 01:45:50;;;;;;;15.00;10.10;;;;;;;;;;5062651;28;20517;-81
2023/12/09 01:48:17;;;;;;;16.27;9.95;;;;;;;;;;5038948;28;20553;-81
2023/12/09 01:50:44;;;;;;;16.75;10.40;;;;;;;;;;5034681;28;20064;-81
2023/12/09 01:53:11;;;;;;;13.40;9.45;;;;;;;;;;5037104;28;20053;-80
2023/12/09 01:55:39;;;;;;;14.23;9.18;;;;;;;;;;5065497;28;20056;-80
2023/12/09 01:58:05;;;;;;;18.00;10.13;;;;;;;;;;5039625;28;20517;-80
2023/12/09 02:00:32;;;;;;;11.45;8.73;;;;;;;;;;5074247;28;20070;-80
2023/12/09 02:02:59;;;;;;;11.65;9.18;;;;;;;;;;5074703;28;20147;-80
2023/12/09 02:05:26;;;;;;;12.68;8.75;;;;;;;;;;5038319;28;20053;-81
2023/12/09 02:07:53;;;;;;;13.07;8.93;;;;;;;;;;5055167;28;20077;-81
2023/12/09 02:10:20;;;;;;;12.55;8.48;;;;;;;;;;5037804;28;20052;-80
2023/12/09 02:13:03;;;;;;;15.00;9.38;;;;;;;;;;5035967;28;20065;-81
2023/12/09 02:15:42;;;;;;;13.35;8.73;;;;;;;;;;5038083;28;20053;-81
2023/12/09 02:18:09;;;;;;;12.05;8.40;;;;;;;;;;5045510;28;20053;-81
2023/12/09 02:20:36;;;;;;;12.05;8.55;;;;;;;;;;5045146;28;20063;-80
2023/12/09 02:23:10;;;;;;;11.93;8.07;;;;;;;;;;5074162;28;20067;-81
2023/12/09 02:25:37;;;;;;;13.63;8.18;;;;;;;;;;5070721;28;20053;-81
2023/12/09 02:28:11;;;;;;;13.93;8.93;;;;;;;;;;5073634;28;20053;-80
2023/12/09 02:31:01;;;;;;;14.05;8.00;;;;;;;;;;5073603;28;20429;-80
2023/12/09 02:33:28;;;;;;;12.13;8.00;;;;;;;;;;5090426;28;20076;-81
2023/12/09 02:35:55;;;;;;;11.70;7.80;;;;;;;;;;5055459;28;20527;-81
2023/12/09 02:38:22;;;;;;;10.63;8.13;;;;;;;;;;5090584;28;20048;-81
2023/12/09 02:40:48;;;;;;;14.20;7.93;;;;;;;;;;5070895;28;20052;-81
2023/12/09 02:43:15;;;;;;;13.70;8.35;;;;;;;;;;5037274;28;20057;-80
2023/12/09 02:45:44;;;;;;;13.55;8.00;;;;;;;;;;5066669;28;20529;-80
2023/12/09 02:48:11;;;;;;;11.90;8.43;;;;;;;;;;5040987;28;20445;-80
2023/12/09 02:50:39;;;;;;;13.70;7.20;;;;;;;;;;5057349;28;20107;-80
2023/12/09 02:53:06;;;;;;;13.40;7.22;;;;;;;;;;5041952;28;20052;-80
2023/12/09 02:55:32;;;;;;;11.60;7.20;;;;;;;;;;5073509;28;20052;-80
2023/12/09 02:57:59;;;;;;;11.10;7.22;;;;;;;;;;5041473;28;20053;-80
2023/12/09 03:00:26;;;;;;;10.35;7.22;;;;;;;;;;5086554;28;20080;-81
2023/12/09 03:02:52;;;;;;;12.77;7.47;;;;;;;;;;5021246;28;20055;-80
2023/12/09 03:05:19;;;;;;;13.45;8.32;;;;;;;;;;5020823;28;20053;-80
2023/12/09 03:07:46;;;;;;;10.90;7.55;;;;;;;;;;5054861;28;20076;-81
2023/12/09 03:10:13;;;;;;;11.05;7.85;;;;;;;;;;5086644;28;20136;-80
2023/12/09 03:12:40;;;;;;;13.65;7.97;;;;;;;;;;5021473;28;20052;-80
2023/12/09 03:15:07;;;;;;;10.68;7.93;;;;;;;;;;5065802;28;20148;-81
2023/12/09 03:17:34;;;;;;;14.25;9.05;;;;;;;;;;5054218;28;20084;-81
2023/12/09 03:20:08;;;;;;;13.02;8.23;;;;;;;;;;5071387;28;20087;-80
2023/12/09 03:22:35;;;;;;;13.48;8.73;;;;;;;;;;5031905;28;20057;-81
2023/12/09 03:25:02;;;;;;;13.23;7.55;;;;;;;;;;5092153;28;20053;-81
2023/12/09 03:27:29;;;;;;;14.25;7.82;;;;;;;;;;5075819;28;20049;-81
2023/12/09 03:29:56;;;;;;;15.63;7.93;;;;;;;;;;5056150;28;20202;-81
2023/12/09 03:32:23;;;;;;;9.85;7.60;;;;;;;;;;5070355;28;20049;-81
2023/12/09 03:34:50;;;;;;;12.23;7.95;;;;;;;;;;5071246;28;20075;-80
2023/12/09 03:37:17;;;;;;;12.05;7.18;;;;;;;;;;5090792;28;20071;-80
2023/12/09 03:39:43;;;;;;;10.15;8.07;;;;;;;;;;5054193;28;20396;-81
2023/12/09 03:42:10;;;;;;;15.73;7.72;;;;;;;;;;5071015;28;20052;-80
2023/12/09 03:44:37;;;;;;;10.70;7.78;;;;;;;;;;5078253;28;20028;-81
2023/12/09 03:47:04;;;;;;;10.55;7.35;;;;;;;;;;5082294;28;20076;-81
2023/12/09 03:49:44;;;;;;;10.73;7.05;;;;;;;;;;5066320;28;20126;-80
2023/12/09 03:52:11;;;;;;;12.48;8.00;;;;;;;;;;5068117;28;20045;-80
2023/12/09 03:54:40;;;;;;;14.18;7.10;;;;;;;;;;5055073;28;20084;-81
2023/12/09 03:57:06;;;;;;;9.45;6.57;;;;;;;;;;5054986;28;20053;-80
2023/12/09 03:59:33;;;;;;;8.10;6.25;;;;;;;;;;5039036;28;20059;-80
2023/12/09 04:02:00;;;;;;;9.40;6.47;;;;;;;;;;5088564;28;20471;-80
2023/12/09 04:04:27;;;;;;;9.30;6.45;;;;;;;;;;5068772;28;20053;-80
2023/12/09 04:06:54;;;;;;;10.82;6.00;;;;;;;;;;5060193;28;20049;-80
2023/12/09 04:09:22;;;;;;;8.88;6.20;;;;;;;;;;5048904;28;20081;-80
2023/12/09 04:11:49;;;;;;;13.52;6.78;;;;;;;;;;5066568;28;20057;-80
2023/12/09 04:14:15;;;;;;;11.38;6.82;;;;;;;;;;5067929;28;20060;-80
2023/12/09 04:16:43;;;;;;;10.63;6.53;;;;;;;;;;5068303;28;20052;-81
2023/12/09 04:19:09;;;;;;;11.90;7.10;;;;;;;;;;5056230;28;20122;-80
2023/12/09 04:21:36;;;;;;;10.40;7.22;;;;;;;;;;5071876;28;20062;-80
2023/12/09 04:24:03;;;;;;;12.27;7.50;;;;;;;;;;5073064;28;20485;-80
2023/12/09 04:26:30;;;;;;;10.88;6.82;;;;;;;;;;5055436;28;20053;-80
2023/12/09 04:28:57;;;;;;;12.05;7.28;;;;;;;;;;5071882;28;20048;-80
2023/12/09 04:31:24;;;;;;;10.95;7.50;;;;;;;;;;5088938;28;20132;-80
2023/12/09 04:33:50;;;;;;;13.00;7.85;;;;;;;;;;5069562;28;20056;-81
2023/12/09 04:36:18;;;;;;;13.68;7.55;;;;;;;;;;5088933;28;20079;-80
2023/12/09 04:38:44;;;;;;;14.18;8.15;;;;;;;;;;5088779;28;20149;-80
2023/12/09 04:41:11;;;;;;;13.18;7.13;;;;;;;;;;5091539;28;20052;-80
2023/12/09 04:43:38;;;;;;;12.40;7.78;;;;;;;;;;5055444;28;20077;-80
2023/12/09 04:46:05;;;;;;;11.88;7.32;;;;;;;;;;5075199;28;20082;-80
2023/12/09 04:48:32;;;;;;;11.27;7.53;;;;;;;;;;5056188;28;20049;-80
2023/12/09 04:50:59;;;;;;;12.77;7.55;;;;;;;;;;5056923;28;20541;-80
2023/12/09 04:53:26;;;;;;;10.13;7.13;;;;;;;;;;5093071;28;20604;-80
2023/12/09 04:55:53;;;;;;;10.98;7.47;;;;;;;;;;5057849;28;20458;-80
2023/12/09 04:58:20;;;;;;;12.00;7.82;;;;;;;;;;5073239;28;20080;-80
2023/12/09 05:00:46;;;;;;;11.30;7.22;;;;;;;;;;5043262;28;20131;-81
2023/12/09 05:03:13;;;;;;;12.05;7.65;;;;;;;;;;5057136;28;20136;-80
2023/12/09 05:05:40;;;;;;;9.85;6.97;;;;;;;;;;5072481;28;20132;-80
2023/12/09 05:08:08;;;;;;;13.35;7.80;;;;;;;;;;5059304;28;20083;-80
2023/12/09 05:10:35;;;;;;;14.57;7.63;;;;;;;;;;5059598;28;20052;-80
2023/12/09 05:13:01;;;;;;;9.38;7.20;;;;;;;;;;5075961;28;20080;-80
2023/12/09 05:15:28;;;;;;;10.55;7.85;;;;;;;;;;5056577;28;20053;-80
2023/12/09 05:17:58;;;;;;;10.13;7.20;;;;;;;;;;5062305;28;20066;-80
2023/12/09 05:20:26;;;;;;;14.20;7.32;;;;;;;;;;5095915;28;20052;-80
2023/12/09 05:22:52;;;;;;;11.15;6.82;;;;;;;;;;5078671;28;20108;-80
2023/12/09 05:25:19;;;;;;;9.65;6.60;;;;;;;;;;5111737;28;20049;-80
2023/12/09 05:27:47;;;;;;;12.38;6.28;;;;;;;;;;5060513;28;20072;-80
2023/12/09 05:30:13;;;;;;;11.25;7.15;;;;;;;;;;5075555;28;20049;-80
2023/12/09 05:32:40;;;;;;;9.95;6.32;;;;;;;;;;5083857;28;20495;-81
2023/12/09 05:35:08;;;;;;;11.77;6.53;;;;;;;;;;5067307;28;20084;-81
2023/12/09 05:37:35;;;;;;;9.07;6.13;;;;;;;;;;5075735;28;20495;-81
2023/12/09 05:40:02;;;;;;;10.95;6.15;;;;;;;;;;5077640;28;20557;-80
2023/12/09 05:42:30;;;;;;;11.40;6.15;;;;;;;;;;5041817;28;20053;-80
2023/12/09 05:44:58;;;;;;;9.50;6.45;;;;;;;;;;5058647;28;20057;-80
2023/12/09 05:47:25;;;;;;;10.43;5.70;;;;;;;;;;5074329;28;20084;-80
2023/12/09 05:49:52;;;;;;;9.43;6.00;;;;;;;;;;5075810;28;20045;-80
2023/12/09 05:52:19;;;;;;;8.32;5.32;;;;;;;;;;5059104;28;20056;-80
2023/12/09 05:54:45;;;;;;;8.20;4.88;;;;;;;;;;5056771;28;20056;-79
2023/12/09 05:57:12;;;;;;;9.25;4.88;;;;;;;;;;5097157;28;20392;-79
2023/12/09 05:59:39;;;;;;;7.80;3.97;;;;;;;;;;5078951;28;20053;-79
2023/12/09 06:02:06;;;;;;;9.10;4.05;;;;;;;;;;5078404;28;20083;-79
2023/12/09 06:04:33;;;;;;;6.93;4.07;;;;;;;;;;5095448;28;20486;-79
2023/12/09 06:07:00;;;;;;;9.23;4.03;;;;;;;;;;5061486;28;20533;-79
2023/12/09 06:09:26;;;;;;;9.13;4.63;;;;;;;;;;5065708;28;20594;-80
2023/12/09 06:11:53;;;;;;;7.88;3.97;;;;;;;;;;5093715;28;20063;-79
2023/12/09 06:14:20;;;;;;;10.23;4.07;;;;;;;;;;5058254;28;20737;-80
2023/12/09 06:16:47;;;;;;;9.52;3.90;;;;;;;;;;5074276;28;20609;-80
2023/12/09 06:19:14;;;;;;;8.18;3.50;;;;;;;;;;5056616;28;20084;-80
2023/12/09 06:21:41;;;;;;;7.63;3.83;;;;;;;;;;5072645;28;20056;-80
2023/12/09 06:24:07;;;;;;;7.82;3.60;;;;;;;;;;5076606;28;20087;-80
2023/12/09 06:26:41;;;;;;;7.70;3.58;;;;;;;;;;5077132;28;20139;-80
2023/12/09 06:29:08;;;;;;;4.60;3.40;;;;;;;;;;5056955;28;20075;-80
2023/12/09 06:31:35;;;;;;;5.57;3.00;;;;;;;;;;5068728;28;20056;-80
2023/12/09 06:34:02;;;;;;;7.00;3.30;;;;;;;;;;5075147;28;20056;-80
2023/12/09 06:36:29;;;;;;;5.60;2.95;;;;;;;;;;5092974;28;20060;-80
2023/12/09 06:38:55;;;;;;;5.82;3.53;;;;;;;;;;5076529;28;20123;-80
2023/12/09 06:41:22;;;;;;;6.45;3.28;;;;;;;;;;5093073;28;20068;-80
2023/12/09 06:43:49;;;;;;;8.13;3.63;;;;;;;;;;5040039;28;20084;-80
2023/12/09 06:46:16;;;;;;;9.35;4.20;;;;;;;;;;5073378;28;20081;-80
2023/12/09 06:48:42;;;;;;;4.05;3.13;;;;;;;;;;5056516;28;20490;-80
2023/12/09 06:51:16;;;;;;;10.80;2.83;;;;;;;;;;5056239;28;20055;-80
2023/12/09 06:53:43;;;;;;;4.13;2.40;;;;;;;;;;5048163;28;20059;-82
2023/12/09 06:56:22;;;;;;;4.97;2.40;;;;;;;;;;5055917;28;20064;-81
2023/12/09 06:58:49;;;;;;;4.40;3.33;;;;;;;;;;5070640;28;20124;-81
2023/12/09 07:01:19;;;;;;;4.03;2.67;;;;;;;;;;5076123;28;20146;-81
2023/12/09 07:03:46;;;;;;;3.75;2.92;;;;;;;;;;5082571;28;20064;-81
2023/12/09 07:06:13;;;;;;;5.45;3.20;;;;;;;;;;5064541;28;20053;-81
2023/12/09 07:08:40;;;;;;;5.53;3.00;;;;;;;;;;5054847;28;20048;-81
2023/12/09 07:11:06;;;;;;;5.88;3.08;;;;;;;;;;5092797;28;20056;-81
2023/12/09 07:13:33;;;;;;;6.40;2.58;;;;;;;;;;5055666;28;20049;-81
2023/12/09 07:16:00;;;;;;;4.60;3.00;;;;;;;;;;5056126;28;20075;-80
2023/12/09 07:18:27;;;;;;;5.70;2.85;;;;;;;;;;5055481;28;20114;-81
2023/12/09 07:20:54;;;;;;;5.57;2.80;;;;;;;;;;5055026;28;20559;-81
2023/12/09 07:23:21;;;;;;;4.93;3.00;;;;;;;;;;5055446;28;20103;-81
2023/12/09 07:25:47;;;;;;;6.82;3.00;;;;;;;;;;5072682;28;20132;-81
2023/12/09 07:28:14;;;;;;;5.55;3.05;;;;;;;;;;5055160;28;20115;-81
2023/12/09 07:30:41;;;;;;;6.40;3.00;;;;;;;;;;5074827;28;20088;-81
2023/12/09 07:33:08;;;;;;;4.65;2.65;;;;;;;;;;5091090;28;20079;-81
2023/12/09 07:35:35;;;;;;;8.13;3.17;;;;;;;;;;5079367;28;20114;-81
2023/12/09 07:38:02;;;;;;;5.80;2.25;;;;;;;;;;5056478;28;20063;-81
2023/12/09 07:40:29;;;;;;;6.57;2.17;;;;;;;;;;5090465;28;20051;-81
2023/12/09 07:42:56;;;;;;;4.25;2.20;;;;;;;;;;5071271;28;20103;-81
2023/12/09 07:45:23;;;;;;;6.95;2.55;;;;;;;;;;5052944;28;20056;-81
2023/12/09 07:47:50;;;;;;;6.28;2.63;;;;;;;;;;5055137;28;20052;-81
2023/12/09 07:50:17;;;;;;;4.82;2.55;;;;;;;;;;5053895;28;20051;-80
2023/12/09 07:52:44;;;;;;;4.47;1.92;;;;;;;;;;5054739;28;20113;-81
2023/12/09 07:55:10;;;;;;;4.40;2.53;;;;;;;;;;5090027;28;20078;-81
2023/12/09 07:57:37;;;;;;;4.28;1.85;;;;;;;;;;5090023;28;20101;-81
2023/12/09 08:00:05;;;;;;;2.92;2.47;;;;;;;;;;5072810;28;20562;-80
2023/12/09 08:02:31;;;;;;;3.75;2.28;;;;;;;;;;5057802;28;20052;-81
2023/12/09 08:04:58;;;;;;;7.70;3.15;;;;;;;;;;5074486;28;20056;-81
2023/12/09 08:07:25;;;;;;;4.40;2.40;;;;;;;;;;5054256;28;20155;-81
2023/12/09 08:09:52;;;;;;;5.70;2.30;;;;;;;;;;5055078;28;20063;-81
2023/12/09 08:12:19;;;;;;;7.00;3.22;;;;;;;;;;5053832;28;20629;-80
2023/12/09 08:14:46;;;;;;;3.28;2.25;;;;;;;;;;5073641;28;20055;-81
2023/12/09 08:17:13;;;;;;;6.95;3.20;;;;;;;;;;5058584;28;20075;-80
2023/12/09 08:19:39;;;;;;;3.20;2.17;;;;;;;;;;5054759;28;20084;-81
2023/12/09 08:22:07;;;;;;;5.45;2.72;;;;;;;;;;5062129;28;20052;-80
2023/12/09 08:24:33;;;;;;;4.30;2.70;;;;;;;;;;5095219;28;20056;-81
2023/12/09 08:27:00;;;;;;;7.35;3.15;;;;;;;;;;5095622;28;20116;-80
2023/12/09 08:29:27;;;;;;;4.38;2.78;;;;;;;;;;5079237;28;20052;-80
2023/12/09 08:31:56;;;;;;;6.95;3.30;;;;;;;;;;5078279;28;20101;-81
2023/12/09 08:34:23;;;;;;;4.88;2.40;;;;;;;;;;5058016;28;20049;-81
2023/12/09 08:36:51;;;;;;;8.10;2.65;;;;;;;;;;5057019;28;20084;-81
2023/12/09 08:39:17;;;;;;;6.18;2.70;;;;;;;;;;5057389;28;20111;-81
2023/12/09 08:41:45;;;;;;;5.70;2.47;;;;;;;;;;5076586;28;20049;-81
2023/12/09 08:44:11;;;;;;;4.28;2.83;;;;;;;;;;5094903;28;20097;-81
2023/12/09 08:46:38;;;;;;;6.57;2.55;;;;;;;;;;5060492;28;20127;-80
2023/12/09 08:49:05;;;;;;;3.92;2.10;;;;;;;;;;5064704;28;20529;-80
2023/12/09 08:51:42;;;;;;;5.82;2.97;;;;;;;;;;5060841;28;20077;-79
2023/12/09 08:54:09;;;;;;;5.28;2.20;;;;;;;;;;5063922;28;20253;-80
2023/12/09 08:56:37;;;;;;;4.55;2.63;;;;;;;;;;5078172;28;20087;-80
2023/12/09 08:59:07;;;;;;;6.57;2.63;;;;;;;;;;5076308;28;20048;-80
2023/12/09 09:01:35;;;;;;;7.70;2.70;;;;;;;;;;5060801;28;20138;-79
2023/12/09 09:04:02;;;;;;;3.13;1.92;;;;;;;;;;5062005;28;20060;-80
2023/12/09 09:06:30;;;;;;;5.93;2.47;;;;;;;;;;5112106;28;20063;-79
2023/12/09 09:08:57;;;;;;;6.55;3.00;;;;;;;;;;5069451;28;20053;-80
2023/12/09 09:11:24;;;;;;;6.65;4.03;;;;;;;;;;5094396;28;20044;-80
2023/12/09 09:13:51;;;;;;;6.32;3.20;;;;;;;;;;5093985;28;20103;-80
2023/12/09 09:16:17;;;;;;;5.90;2.70;;;;;;;;;;5095336;28;20048;-79
2023/12/09 09:18:44;;;;;;;7.80;3.70;;;;;;;;;;5096783;28;20079;-80
2023/12/09 09:21:11;;;;;;;3.95;2.72;;;;;;;;;;5096786;28;20059;-80
2023/12/09 09:23:38;;;;;;;5.75;2.78;;;;;;;;;;5096336;28;20056;-80
2023/12/09 09:26:05;;;;;;;4.93;2.60;;;;;;;;;;5043883;28;20541;-80
2023/12/09 09:28:32;;;;;;;4.22;2.88;;;;;;;;;;5061478;28;20048;-80
2023/12/09 09:30:59;;;;;;;4.30;2.45;;;;;;;;;;5079837;28;20079;-79
2023/12/09 09:33:26;;;;;;;6.47;2.53;;;;;;;;;;5098104;28;20106;-80
2023/12/09 09:35:57;;;;;;;2.50;2.25;;;;;;;;;;5094708;28;20056;-80
2023/12/09 09:38:24;;;;;;;6.63;2.47;;;;;;;;;;5070314;28;20065;-80
2023/12/09 09:40:51;;;;;;;6.82;3.15;;;;;;;;;;5045945;28;20055;-80
2023/12/09 09:43:21;;;;;;;4.95;2.40;;;;;;;;;;5080514;28;20076;-80
2023/12/09 09:45:48;;;;;;;3.58;2.25;;;;;;;;;;5079407;28;20072;-80
2023/12/09 09:48:18;;;;;;;5.72;2.60;;;;;;;;;;5078080;28;20151;-80
2023/12/09 09:50:45;;;;;;;5.25;2.22;;;;;;;;;;5078205;28;20055;-79
2023/12/09 09:53:13;;;;;;;5.97;2.67;;;;;;;;;;5035478;28;20449;-79
2023/12/09 09:55:41;;;;;;;4.10;2.10;;;;;;;;;;5075538;28;20048;-79
2023/12/09 09:58:08;;;;;;;5.40;2.22;;;;;;;;;;5046218;28;20056;-79
2023/12/09 10:00:34;;;;;;;4.32;2.70;;;;;;;;;;5079417;28;20053;-80
2023/12/09 10:03:02;;;;;;;7.40;2.30;;;;;;;;;;5063876;28;20049;-80
2023/12/09 10:05:30;;;;;;;2.53;2.13;;;;;;;;;;5094771;28;20048;-80
2023/12/09 10:07:57;;;;;;;4.25;2.15;;;;;;;;;;5080254;28;20060;-79
2023/12/09 10:10:23;;;;;;;5.15;2.65;;;;;;;;;;5062768;28;20114;-80
2023/12/09 10:12:50;;;;;;;5.20;2.47;;;;;;;;;;5078441;28;20056;-80
2023/12/09 10:15:17;;;;;;;6.63;2.70;;;;;;;;;;5073651;28;20067;-80
2023/12/09 10:17:45;;;;;;;3.35;2.72;;;;;;;;;;5075467;28;20067;-80
2023/12/09 10:20:12;;;;;;;5.95;2.45;;;;;;;;;;5069210;28;20045;-78
2023/12/09 10:22:39;;;;;;;4.20;2.65;;;;;;;;;;5069575;28;20058;-78
2023/12/09 10:25:07;;;;;;;15.73;7.45;;;;;;;;;;5057106;28;20052;-78
2023/12/09 10:27:34;;;;;;;7.03;3.38;;;;;;;;;;5053334;28;20053;-78
2023/12/09 10:30:02;;;;;;;7.00;3.22;;;;;;;;;;5056068;28;20135;-78
2023/12/09 10:32:29;;;;;;;4.93;2.50;;;;;;;;;;5073339;28;20059;-78
2023/12/09 10:34:56;;;;;;;4.60;2.92;;;;;;;;;;5071314;28;20052;-78
2023/12/09 10:37:26;;;;;;;5.75;3.00;;;;;;;;;;5053211;28;20056;-77
2023/12/09 10:39:53;;;;;;;4.57;2.50;;;;;;;;;;5054528;28;20059;-78
2023/12/09 10:42:22;;;;;;;5.90;3.20;;;;;;;;;;5073102;28;20075;-79
2023/12/09 10:44:49;;;;;;;3.72;2.40;;;;;;;;;;5057229;28;20058;-78
2023/12/09 10:47:16;;;;;;;3.95;2.63;;;;;;;;;;5089573;28;20056;-78
2023/12/09 10:49:43;;;;;;;6.65;2.90;;;;;;;;;;5052784;28;20091;-78
2023/12/09 10:52:10;;;;;;;6.15;2.80;;;;;;;;;;5052837;28;20273;-78
2023/12/09 10:54:37;;;;;;;5.47;2.58;;;;;;;;;;5064015;28;20140;-78
2023/12/09 10:57:04;;;;;;;3.78;3.30;;;;;;;;;;5069097;28;20452;-78
2023/12/09 10:59:32;;;;;;;4.90;3.03;;;;;;;;;;5047052;28;20045;-78
2023/12/09 11:01:59;;;;;;;3.03;2.50;;;;;;;;;;5037678;28;20053;-78
2023/12/09 11:04:26;;;;;;;4.30;2.40;;;;;;;;;;5052147;28;20102;-78
2023/12/09 11:06:54;;;;;;;4.38;2.50;;;;;;;;;;5070184;28;20135;-78
2023/12/09 11:09:20;;;;;;;9.30;5.20;;;;;;;;;;5068406;28;20560;-78
2023/12/09 11:11:47;;;;;;;5.18;3.20;;;;;;;;;;5058214;28;20048;-77
2023/12/09 11:14:15;;;;;;;3.85;2.65;;;;;;;;;;5054721;28;20138;-78
2023/12/09 11:16:42;;;;;;;4.97;2.53;;;;;;;;;;5057178;28;20075;-77
2023/12/09 11:19:16;;;;;;;2.63;2.00;;;;;;;;;;5072500;28;20128;-78
2023/12/09 11:21:47;;;;;;;2.10;1.70;;;;;;;;;;5041702;28;20106;-77
2023/12/09 11:24:14;;;;;;;5.18;1.90;;;;;;;;;;5054859;28;20053;-77
2023/12/09 11:26:45;;;;;;;3.60;2.00;;;;;;;;;;5069753;28;20057;-77
2023/12/09 11:29:19;;;;;;;2.38;1.70;;;;;;;;;;5067238;28;20333;-78
2023/12/09 11:31:48;;;;;;;2.88;2.05;;;;;;;;;;5058062;28;20056;-78
2023/12/09 11:34:18;;;;;;;2.85;2.13;;;;;;;;;;5085605;28;20305;-78
2023/12/09 11:36:46;;;;;;;2.22;1.77;;;;;;;;;;5059540;28;20091;-78
2023/12/09 11:39:19;;;;;;;2.47;2.08;;;;;;;;;;5073122;28;20132;-78
2023/12/09 11:41:48;;;;;;;3.47;2.83;;;;;;;;;;5073752;28;20052;-77
2023/12/09 11:44:15;;;;;;;5.93;2.90;;;;;;;;;;5037153;28;20061;-78
2023/12/09 11:46:42;;;;;;;3.10;2.20;;;;;;;;;;5069588;28;20048;-78
2023/12/09 11:49:09;;;;;;;3.40;2.63;;;;;;;;;;5072941;28;20081;-78
2023/12/09 11:51:37;;;;;;;3.63;2.35;;;;;;;;;;5053321;28;20053;-78
2023/12/09 11:54:07;;;;;;;2.95;2.65;;;;;;;;;;5056546;28;20126;-78
2023/12/09 11:56:34;;;;;;;3.22;2.65;;;;;;;;;;5070024;28;20052;-78
2023/12/09 11:59:01;;;;;;;3.95;2.78;;;;;;;;;;5039119;28;20048;-78
2023/12/09 12:01:29;;;;;;;3.85;2.67;;;;;;;;;;5052998;28;20095;-78
2023/12/09 12:03:56;;;;;;;2.80;2.53;;;;;;;;;;5052147;28;20140;-78
2023/12/09 12:06:23;;;;;;;3.72;2.92;;;;;;;;;;5070768;28;20048;-78
2023/12/09 12:08:51;;;;;;;3.83;2.70;;;;;;;;;;5037553;28;20131;-78
2023/12/09 12:11:21;;;;;;;4.15;3.17;;;;;;;;;;5050755;28;20049;-78
2023/12/09 12:13:48;;;;;;;5.10;2.90;;;;;;;;;;5067471;28;20048;-78
2023/12/09 12:16:15;;;;;;;4.82;2.95;;;;;;;;;;5034207;28;20584;-78
2023/12/09 12:18:43;;;;;;;5.25;3.13;;;;;;;;;;5030620;28;20474;-78
2023/12/09 12:21:10;;;;;;;9.50;3.60;;;;;;;;;;5053763;28;20468;-78
2023/12/09 12:23:38;;;;;;;5.82;3.58;;;;;;;;;;5087133;28;20053;-78
2023/12/09 12:26:05;;;;;;;5.68;3.88;;;;;;;;;;5069924;28;20528;-78
2023/12/09 12:28:32;;;;;;;9.10;4.70;;;;;;;;;;5081147;28;20081;-78
2023/12/09 12:31:03;;;;;;;6.57;4.03;;;;;;;;;;5069985;28;20048;-78
2023/12/09 12:33:30;;;;;;;4.97;2.97;;;;;;;;;;5087469;28;20468;-78
2023/12/09 12:36:01;;;;;;;3.53;2.35;;;;;;;;;;5092737;28;20116;-78
2023/12/09 12:38:28;;;;;;;3.35;2.53;;;;;;;;;;5041666;28;20056;-78
2023/12/09 12:40:56;;;;;;;5.45;3.53;;;;;;;;;;5093457;28;20048;-78
2023/12/09 12:43:28;;;;;;;5.55;3.33;;;;;;;;;;5073097;28;20109;-78
2023/12/09 12:45:57;;;;;;;8.43;4.47;;;;;;;;;;5073449;28;20460;-78
2023/12/09 12:48:24;;;;;;;6.13;3.35;;;;;;;;;;5034179;28;20053;-78
2023/12/09 12:50:52;;;;;;;4.55;3.20;;;;;;;;;;5049598;28;20127;-78
2023/12/09 12:53:20;;;;;;;7.88;4.20;;;;;;;;;;5086927;28;20055;-78
2023/12/09 12:55:47;;;;;;;9.18;4.07;;;;;;;;;;5050674;28;20060;-77
2023/12/09 12:58:15;;;;;;;9.73;5.07;;;;;;;;;;5087102;28;20056;-78
2023/12/09 13:00:42;;;;;;;5.53;3.25;;;;;;;;;;5086681;28;20048;-77
2023/12/09 13:03:09;;;;;;;5.47;2.50;;;;;;;;;;5053332;28;20069;-77
2023/12/09 13:05:36;;;;;;;3.45;1.95;;;;;;;;;;5065444;28;20048;-78
2023/12/09 13:08:04;;;;;;;1.88;1.60;;;;;;;;;;5073185;28;20143;-78
2023/12/09 13:10:31;;;;;;;1.88;1.52;;;;;;;;;;5073585;28;20136;-78
2023/12/09 13:12:58;;;;;;;1.98;1.70;;;;;;;;;;5065344;28;20057;-78
2023/12/09 13:15:25;;;;;;;2.47;1.80;;;;;;;;;;5053363;28;20053;-78
2023/12/09 13:17:52;;;;;;;2.13;1.67;;;;;;;;;;5068912;28;20102;-78
2023/12/09 13:20:19;;;;;;;2.47;1.60;;;;;;;;;;5038771;28;20045;-79
2023/12/09 13:22:46;;;;;;;1.67;1.50;;;;;;;;;;5050909;28;20600;-78
2023/12/09 13:25:13;;;;;;;2.70;1.80;;;;;;;;;;5053113;28;20053;-78
2023/12/09 13:27:41;;;;;;;6.38;1.67;;;;;;;;;;5053304;28;20102;-78
2023/12/09 13:30:09;;;;;;;2.95;1.80;;;;;;;;;;5073441;28;20087;-78
2023/12/09 13:32:37;;;;;;;2.70;1.67;;;;;;;;;;5053080;28;20059;-78
2023/12/09 13:35:05;;;;;;;1.80;1.60;;;;;;;;;;5055983;28;20095;-78
2023/12/09 13:37:32;;;;;;;3.70;1.88;;;;;;;;;;5083596;28;20388;-78
2023/12/09 13:39:59;;;;;;;2.30;1.60;;;;;;;;;;5038044;28;20498;-78
2023/12/09 13:42:27;;;;;;;2.83;1.90;;;;;;;;;;5073538;28;20053;-78
2023/12/09 13:44:54;;;;;;;1.65;1.27;;;;;;;;;;5072971;28;20044;-79
2023/12/09 13:47:21;;;;;;;2.05;1.27;;;;;;;;;;5053095;28;20088;-78
2023/12/09 13:49:48;;;;;;;1.60;1.27;;;;;;;;;;5053296;28;20053;-78
2023/12/09 13:52:16;;;;;;;1.83;1.52;;;;;;;;;;5104243;28;20048;-78
2023/12/09 13:54:43;;;;;;;3.20;1.95;;;;;;;;;;5061427;28;20049;-78
2023/12/09 13:57:10;;;;;;;3.05;2.08;;;;;;;;;;5090249;28;20490;-77
2023/12/09 13:59:37;;;;;;;2.75;2.05;;;;;;;;;;5044252;28;20120;-77
2023/12/09 14:02:04;;;;;;;3.08;2.33;;;;;;;;;;5055131;28;20044;-78
2023/12/09 14:04:31;;;;;;;3.22;1.90;;;;;;;;;;5052299;28;20144;-78
2023/12/09 14:06:59;;;;;;;2.47;1.40;;;;;;;;;;5053304;28;20056;-77
2023/12/09 14:09:27;;;;;;;2.58;1.98;;;;;;;;;;5052656;28;20052;-78
2023/12/09 14:11:54;;;;;;;2.00;1.73;;;;;;;;;;5036796;28;20552;-78
2023/12/09 14:14:20;;;;;;;1.90;1.63;;;;;;;;;;5035392;28;20053;-78
2023/12/09 14:16:47;;;;;;;6.93;4.93;;;;;;;;;;5069028;28;20520;-78
2023/12/09 14:19:14;;;;;;;2.70;2.28;;;;;;;;;;5052360;28;20061;-78
2023/12/09 14:21:41;;;;;;;2.95;1.88;;;;;;;;;;5032095;28;20083;-77
2023/12/09 14:24:08;;;;;;;2.63;2.00;;;;;;;;;;5060073;28;20088;-77
2023/12/09 14:26:36;;;;;;;3.60;1.90;;;;;;;;;;5055576;28;20387;-78
2023/12/09 14:29:03;;;;;;;2.47;2.05;;;;;;;;;;5055298;28;20064;-77
2023/12/09 14:31:29;;;;;;;2.28;1.65;;;;;;;;;;5055107;28;20086;-77
2023/12/09 14:33:56;;;;;;;5.18;1.88;;;;;;;;;;5037160;28;20095;-78
2023/12/09 14:36:23;;;;;;;2.88;1.67;;;;;;;;;;5051737;28;20051;-78